createdAt,value
2022-12-08T00:01:34.258Z,19.08
2022-12-08T00:04:03.136Z,18.27
2022-12-08T00:06:50.140Z,19.52
2022-12-08T00:09:24.376Z,19.00
2022-12-08T00:11:55.789Z,19.58
2022-12-08T00:14:29.717Z,18.30
2022-12-08T00:16:58.914Z,19.42
2022-12-08T00:19:28.336Z,20.17
2022-12-08T00:21:56.848Z,19.92
2022-12-08T00:24:31.007Z,18.17
2022-12-08T00:26:58.955Z,18.83
2022-12-08T00:29:26.869Z,19.85
2022-12-08T00:31:55.138Z,19.33
2022-12-08T00:34:23.093Z,18.67
2022-12-08T00:36:51.045Z,18.40
2022-12-08T00:39:19.265Z,16.95
2022-12-08T00:42:06.296Z,17.27
2022-12-08T00:44:34.258Z,16.75
2022-12-08T00:47:02.202Z,17.80
2022-12-08T00:49:30.014Z,17.15
2022-12-08T00:51:58.058Z,17.95
2022-12-08T00:54:25.948Z,17.10
2022-12-08T00:56:55.204Z,17.40
2022-12-08T00:59:23.169Z,15.75
2022-12-08T01:01:51.234Z,17.77
2022-12-08T01:04:20.568Z,16.63
2022-12-08T01:06:49.059Z,16.52
2022-12-08T01:09:18.388Z,16.83
2022-12-08T01:11:46.771Z,16.00
2022-12-08T01:14:16.115Z,16.17
2022-12-08T01:16:44.479Z,16.48
2022-12-08T01:19:14.310Z,17.15
2022-12-08T01:21:43.403Z,17.70
2022-12-08T01:24:13.211Z,16.92
2022-12-08T01:26:41.138Z,17.75
2022-12-08T01:29:09.688Z,16.73
2022-12-08T01:31:39.326Z,17.38
2022-12-08T01:34:08.108Z,17.42
2022-12-08T01:36:38.488Z,17.45
2022-12-08T01:39:08.885Z,16.30
2022-12-08T01:41:38.649Z,17.70
2022-12-08T01:44:39.582Z,16.27
2022-12-08T01:47:08.893Z,17.83
2022-12-08T01:49:37.670Z,16.60
2022-12-08T01:52:15.432Z,18.27
2022-12-08T01:54:48.324Z,16.33
2022-12-08T01:57:19.689Z,16.80
2022-12-08T01:59:54.150Z,17.02
2022-12-08T02:02:25.538Z,17.77
2022-12-08T02:04:53.372Z,16.23
2022-12-08T02:07:23.265Z,16.42
2022-12-08T02:09:52.681Z,16.13
2022-12-08T02:12:20.574Z,14.57
2022-12-08T02:14:48.440Z,17.58
2022-12-08T02:17:33.251Z,16.42
2022-12-08T02:20:26.021Z,15.15
2022-12-08T02:23:03.771Z,17.42
2022-12-08T02:25:41.261Z,17.10
2022-12-08T02:28:30.947Z,17.13
2022-12-08T02:31:12.976Z,16.33
2022-12-08T02:34:25.728Z,16.38
2022-12-08T02:37:04.144Z,16.48
2022-12-08T02:39:40.161Z,17.17
2022-12-08T02:42:16.080Z,17.08
2022-12-08T02:44:49.710Z,16.70
2022-12-08T02:47:20.551Z,17.50
2022-12-08T02:49:49.914Z,17.73
2022-12-08T02:52:40.044Z,17.40
2022-12-08T02:55:13.018Z,18.75
2022-12-08T02:57:47.452Z,16.83
2022-12-08T03:00:18.365Z,18.08
2022-12-08T03:02:59.648Z,16.50
2022-12-08T03:05:42.188Z,16.40
2022-12-08T03:08:17.170Z,16.15
2022-12-08T03:10:53.511Z,16.55
2022-12-08T03:13:24.659Z,15.48
2022-12-08T03:15:54.031Z,17.45
2022-12-08T03:18:28.533Z,14.88
2022-12-08T03:20:57.775Z,17.58
2022-12-08T03:23:26.548Z,16.10
2022-12-08T03:26:03.145Z,15.82
2022-12-08T03:28:31.790Z,15.82
2022-12-08T03:31:03.744Z,16.70
2022-12-08T03:33:34.254Z,16.10
2022-12-08T03:36:07.198Z,16.35
2022-12-08T03:38:39.954Z,16.77
2022-12-08T03:41:19.600Z,16.13
2022-12-08T03:43:48.627Z,16.50
2022-12-08T03:46:17.225Z,16.38
2022-12-08T03:48:45.202Z,16.63
2022-12-08T03:51:15.024Z,15.75
2022-12-08T03:53:42.957Z,17.33
2022-12-08T03:56:17.385Z,16.08
2022-12-08T03:58:45.659Z,15.55
2022-12-08T04:01:13.869Z,16.25
2022-12-08T04:03:41.782Z,15.38
2022-12-08T04:06:09.739Z,15.82
2022-12-08T04:08:39.042Z,15.32
2022-12-08T04:11:07.391Z,14.70
2022-12-08T04:13:35.649Z,15.00
2022-12-08T04:16:05.128Z,15.70
2022-12-08T04:18:33.520Z,12.55
2022-12-08T04:21:01.590Z,13.82
2022-12-08T04:23:29.968Z,15.05
2022-12-08T04:25:59.188Z,14.90
2022-12-08T04:28:29.436Z,15.93
2022-12-08T04:30:57.495Z,14.55
2022-12-08T04:33:25.643Z,15.70
2022-12-08T04:35:53.611Z,14.50
2022-12-08T04:38:21.589Z,15.43
2022-12-08T04:40:49.413Z,15.52
2022-12-08T04:43:18.660Z,16.27
2022-12-08T04:45:47.238Z,14.90
2022-12-08T04:48:15.153Z,15.75
2022-12-08T04:50:45.082Z,15.77
2022-12-08T04:53:14.327Z,13.95
2022-12-08T04:55:43.881Z,15.85
2022-12-08T04:58:14.839Z,14.70
2022-12-08T05:00:44.426Z,14.57
2022-12-08T05:03:12.889Z,15.98
2022-12-08T05:05:41.981Z,14.18
2022-12-08T05:08:10.176Z,12.80
2022-12-08T05:10:38.458Z,14.93
2022-12-08T05:13:06.365Z,14.80
2022-12-08T05:15:34.341Z,13.98
2022-12-08T05:18:03.557Z,13.32
2022-12-08T05:20:31.451Z,14.10
2022-12-08T05:22:59.296Z,14.45
2022-12-08T05:25:27.196Z,14.30
2022-12-08T05:28:06.149Z,14.10
2022-12-08T05:30:42.994Z,13.50
2022-12-08T05:33:12.274Z,13.68
2022-12-08T05:35:40.113Z,15.27
2022-12-08T05:38:08.493Z,14.20
2022-12-08T05:40:38.557Z,13.25
2022-12-08T05:43:06.528Z,14.15
2022-12-08T05:45:34.946Z,14.25
2022-12-08T05:48:03.138Z,13.15
2022-12-08T05:50:32.689Z,14.55
2022-12-08T05:53:00.533Z,13.52
2022-12-08T05:55:28.483Z,14.25
2022-12-08T05:57:56.368Z,14.02
2022-12-08T06:00:24.421Z,14.38
2022-12-08T06:02:52.396Z,12.50
2022-12-08T06:05:20.357Z,13.18
2022-12-08T06:07:49.647Z,13.15
2022-12-08T06:10:17.550Z,14.88
2022-12-08T06:12:45.557Z,13.07
2022-12-08T06:15:13.426Z,13.63
2022-12-08T06:17:41.315Z,13.35
2022-12-08T06:20:09.932Z,11.23
2022-12-08T06:22:38.527Z,11.45
2022-12-08T06:25:10.064Z,12.13
2022-12-08T06:27:38.274Z,11.52
2022-12-08T06:30:07.870Z,12.23
2022-12-08T06:32:35.951Z,12.68
2022-12-08T06:35:03.832Z,11.50
2022-12-08T06:37:31.879Z,13.52
2022-12-08T06:39:59.991Z,13.30
2022-12-08T06:42:47.350Z,13.05
2022-12-08T06:45:16.708Z,12.23
2022-12-08T06:47:44.666Z,11.60
2022-12-08T06:50:13.943Z,12.05
2022-12-08T06:52:53.047Z,12.40
2022-12-08T06:55:57.524Z,11.27
2022-12-08T06:58:15.977Z,11.05
2022-12-08T07:00:44.286Z,11.73
2022-12-08T07:03:13.528Z,10.95
2022-12-08T07:05:42.292Z,11.32
2022-12-08T07:08:10.717Z,11.35
2022-12-08T07:10:38.817Z,11.65
2022-12-08T07:13:06.707Z,13.27
2022-12-08T07:15:36.025Z,12.55
2022-12-08T07:18:03.854Z,11.40
2022-12-08T07:20:31.849Z,12.77
2022-12-08T07:22:59.790Z,10.73
2022-12-08T07:25:27.809Z,10.80
2022-12-08T07:27:55.702Z,11.63
2022-12-08T07:30:23.613Z,10.70
2022-12-08T07:32:52.817Z,11.60
2022-12-08T07:35:21.583Z,11.32
2022-12-08T07:37:50.690Z,10.70
2022-12-08T07:40:18.555Z,10.40
2022-12-08T07:42:46.391Z,10.75
2022-12-08T07:45:14.235Z,10.32
2022-12-08T07:47:42.091Z,11.27
2022-12-08T07:50:12.203Z,11.77
2022-12-08T07:52:40.027Z,10.18
2022-12-08T07:55:08.608Z,10.95
2022-12-08T07:57:36.538Z,10.35
2022-12-08T08:00:06.197Z,11.02
2022-12-08T08:02:34.409Z,10.68
2022-12-08T08:05:02.572Z,10.55
2022-12-08T08:07:33.222Z,11.32
2022-12-08T08:10:01.387Z,11.35
2022-12-08T08:12:32.126Z,10.85
2022-12-08T08:15:00.714Z,10.55
2022-12-08T08:17:28.997Z,10.18
2022-12-08T08:19:57.492Z,10.27
2022-12-08T08:22:26.115Z,10.57
2022-12-08T08:24:55.812Z,10.27
2022-12-08T08:27:24.977Z,10.05
2022-12-08T08:29:52.943Z,9.65
2022-12-08T08:32:21.677Z,10.52
2022-12-08T08:34:49.492Z,10.52
2022-12-08T08:37:17.405Z,10.18
2022-12-08T08:39:45.340Z,9.35
2022-12-08T08:42:14.625Z,10.48
2022-12-08T08:44:43.654Z,11.02
2022-12-08T08:47:12.009Z,9.73
2022-12-08T08:49:39.858Z,9.98
2022-12-08T08:52:08.256Z,9.75
2022-12-08T08:54:36.786Z,10.13
2022-12-08T08:57:05.093Z,10.02
2022-12-08T08:59:34.269Z,9.57
2022-12-08T09:02:02.277Z,10.95
2022-12-08T09:04:30.229Z,9.93
2022-12-08T09:06:58.143Z,9.30
2022-12-08T09:09:25.982Z,11.10
2022-12-08T09:11:55.300Z,10.32
2022-12-08T09:14:24.305Z,10.35
2022-12-08T09:16:53.831Z,10.18
2022-12-08T09:19:21.872Z,10.48
2022-12-08T09:21:49.774Z,10.63
2022-12-08T09:24:17.814Z,10.88
2022-12-08T09:26:46.903Z,11.05
2022-12-08T09:29:14.861Z,9.98
2022-12-08T09:31:43.067Z,9.30
2022-12-08T09:34:13.801Z,9.48
2022-12-08T09:36:41.753Z,9.70
2022-12-08T09:39:09.792Z,9.63
2022-12-08T09:41:44.781Z,9.43
2022-12-08T09:44:51.594Z,9.57
2022-12-08T09:47:26.719Z,9.93
2022-12-08T09:50:04.779Z,9.85
2022-12-08T09:52:36.601Z,10.18
2022-12-08T09:55:10.894Z,8.82
2022-12-08T09:57:38.817Z,8.82
2022-12-08T10:00:08.419Z,10.35
2022-12-08T10:02:36.604Z,10.85
2022-12-08T10:05:06.609Z,9.35
2022-12-08T10:07:44.706Z,8.85
2022-12-08T10:10:26.048Z,9.52
2022-12-08T10:13:01.489Z,9.50
2022-12-08T10:15:42.861Z,8.88
2022-12-08T10:18:15.942Z,8.77
2022-12-08T10:20:47.415Z,9.88
2022-12-08T10:23:24.597Z,10.40
2022-12-08T10:25:56.910Z,10.10
2022-12-08T10:28:24.860Z,8.73
2022-12-08T10:30:52.834Z,9.27
2022-12-08T10:33:22.006Z,9.57
2022-12-08T10:35:52.742Z,8.68
2022-12-08T10:38:24.908Z,9.00
2022-12-08T10:40:57.021Z,10.25
2022-12-08T10:43:27.093Z,8.73
2022-12-08T10:45:55.509Z,10.00
2022-12-08T10:48:26.997Z,10.02
2022-12-08T10:50:58.799Z,10.63
2022-12-08T10:53:29.749Z,10.25
2022-12-08T10:56:07.842Z,10.07
2022-12-08T10:58:40.590Z,9.25
2022-12-08T11:01:13.172Z,9.35
2022-12-08T11:03:47.196Z,10.13
2022-12-08T11:06:20.195Z,9.88
2022-12-08T11:08:51.526Z,9.68
2022-12-08T11:11:24.353Z,9.35
2022-12-08T11:13:55.569Z,10.43
2022-12-08T11:16:25.231Z,9.52
2022-12-08T11:18:58.097Z,8.65
2022-12-08T11:21:37.701Z,10.45
2022-12-08T11:24:23.002Z,9.93
2022-12-08T11:26:55.242Z,9.45
2022-12-08T11:29:23.641Z,8.77
2022-12-08T11:31:54.747Z,9.65
2022-12-08T11:34:32.646Z,9.40
2022-12-08T11:37:02.946Z,8.68
2022-12-08T11:39:35.087Z,9.75
2022-12-08T11:42:05.088Z,9.43
2022-12-08T11:44:39.783Z,9.57
2022-12-08T11:47:14.854Z,9.38
2022-12-08T11:49:44.376Z,8.25
2022-12-08T11:52:21.560Z,9.90
2022-12-08T11:54:54.613Z,8.40
2022-12-08T11:57:25.573Z,8.65
2022-12-08T11:59:57.403Z,8.25
2022-12-08T12:02:28.944Z,8.10
2022-12-08T12:05:02.125Z,7.45
2022-12-08T12:07:47.576Z,7.28
2022-12-08T12:10:42.654Z,8.32
2022-12-08T12:13:22.448Z,7.95
2022-12-08T12:16:19.127Z,8.38
2022-12-08T12:18:52.538Z,8.20
2022-12-08T12:21:23.471Z,7.97
2022-12-08T12:23:57.750Z,8.32
2022-12-08T12:26:28.033Z,8.13
2022-12-08T12:28:59.081Z,8.32
2022-12-08T12:31:30.064Z,8.48
2022-12-08T12:34:07.137Z,8.13
2022-12-08T12:36:50.382Z,8.27
2022-12-08T12:39:23.327Z,9.07
2022-12-08T12:41:54.925Z,7.93
2022-12-08T12:44:44.655Z,8.00
2022-12-08T12:47:16.384Z,8.60
2022-12-08T12:50:06.901Z,8.30
2022-12-08T12:52:48.939Z,8.75
2022-12-08T12:55:53.127Z,7.75
2022-12-08T12:58:49.417Z,8.90
2022-12-08T13:01:57.123Z,8.50
2022-12-08T13:04:34.298Z,8.45
2022-12-08T13:07:02.793Z,8.27
2022-12-08T13:09:36.424Z,7.43
2022-12-08T13:12:11.351Z,7.32
2022-12-08T13:14:48.410Z,7.55
2022-12-08T13:17:24.316Z,8.25
2022-12-08T13:19:59.415Z,7.40
2022-12-08T13:23:10.058Z,7.72
2022-12-08T13:26:19.771Z,7.40
2022-12-08T13:29:14.227Z,6.75
2022-12-08T13:31:50.181Z,6.82
2022-12-08T13:34:23.182Z,6.78
2022-12-08T13:36:58.484Z,7.32
2022-12-08T13:39:33.394Z,7.70
2022-12-08T13:42:04.862Z,6.70
2022-12-08T13:45:18.440Z,7.30
2022-12-08T13:47:34.772Z,6.90
2022-12-08T13:58:41.236Z,6.28
2022-12-08T14:01:14.889Z,5.80
2022-12-08T14:04:20.477Z,6.55
2022-12-08T14:06:40.573Z,6.88
2022-12-08T14:09:13.340Z,7.18
2022-12-08T14:11:43.971Z,7.68
2022-12-08T14:14:32.652Z,7.75
2022-12-08T14:17:11.549Z,7.32
2022-12-08T14:19:44.216Z,7.35
2022-12-08T14:22:13.793Z,8.10
2022-12-08T14:24:45.459Z,6.28
2022-12-08T14:27:21.055Z,7.95
2022-12-08T14:29:52.330Z,7.90
2022-12-08T14:32:30.333Z,9.35
2022-12-08T14:35:03.501Z,7.97
2022-12-08T14:37:34.908Z,6.88
2022-12-08T14:40:07.600Z,6.10
2022-12-08T14:42:44.785Z,8.18
2022-12-08T14:45:16.087Z,7.60
2022-12-08T14:47:44.429Z,8.70
2022-12-08T14:50:42.025Z,8.48
2022-12-08T14:53:16.470Z,7.95
2022-12-08T14:55:47.681Z,8.55
2022-12-08T14:58:20.951Z,7.82
2022-12-08T15:00:51.749Z,8.48
2022-12-08T15:03:22.778Z,7.78
2022-12-08T15:05:54.649Z,8.23
2022-12-08T15:08:23.031Z,7.88
2022-12-08T15:11:20.691Z,7.63
2022-12-08T15:13:50.756Z,8.20
2022-12-08T15:16:27.503Z,8.07
2022-12-08T15:19:19.008Z,8.85
2022-12-08T15:21:48.618Z,8.25
2022-12-08T15:24:18.129Z,7.40
2022-12-08T15:26:48.878Z,8.38
2022-12-08T15:29:21.865Z,7.18
2022-12-08T15:31:50.126Z,7.20
2022-12-08T15:34:18.193Z,7.47
2022-12-08T15:36:46.418Z,8.55
2022-12-08T15:39:26.839Z,8.25
2022-12-08T15:41:54.825Z,8.25
2022-12-08T15:44:22.932Z,9.18
2022-12-08T15:46:51.165Z,8.93
2022-12-08T15:49:20.831Z,8.63
2022-12-08T15:51:49.152Z,8.27
2022-12-08T15:54:17.601Z,7.93
2022-12-08T15:57:18.100Z,8.10
2022-12-08T15:59:38.993Z,8.77
2022-12-08T16:02:07.211Z,8.15
2022-12-08T16:05:25.289Z,7.57
2022-12-08T16:07:28.438Z,7.28
2022-12-08T16:09:57.334Z,7.78
2022-12-08T16:13:54.757Z,8.57
2022-12-08T16:15:55.126Z,7.95
2022-12-08T16:18:29.645Z,9.27
2022-12-08T16:21:09.656Z,7.43
2022-12-08T16:23:45.804Z,7.32
2022-12-08T16:26:28.428Z,8.90
2022-12-08T16:29:06.251Z,9.80
2022-12-08T16:31:34.535Z,8.90
2022-12-08T16:34:02.523Z,9.25
2022-12-08T16:36:30.506Z,10.07
2022-12-08T16:38:58.537Z,9.35
2022-12-08T16:41:43.957Z,9.45
2022-12-08T16:44:13.249Z,8.88
2022-12-08T16:46:41.255Z,9.32
2022-12-08T16:49:10.994Z,8.93
2022-12-08T16:51:38.934Z,9.43
2022-12-08T16:54:06.827Z,10.77
2022-12-08T16:56:34.802Z,14.20
2022-12-08T16:59:03.210Z,11.82
2022-12-08T17:01:32.638Z,10.77
2022-12-08T17:04:29.731Z,10.07
2022-12-08T17:06:50.971Z,9.20
2022-12-08T17:09:19.072Z,9.50
2022-12-08T17:11:47.043Z,9.50
2022-12-08T17:14:16.194Z,10.20
2022-12-08T17:16:46.091Z,10.43
2022-12-08T17:19:15.270Z,10.25
2022-12-08T17:21:43.213Z,10.82
2022-12-08T17:24:11.277Z,10.18
2022-12-08T17:26:39.115Z,10.30
2022-12-08T17:29:07.040Z,11.60
2022-12-08T17:31:35.158Z,11.48
2022-12-08T17:34:06.270Z,10.75
2022-12-08T17:36:34.127Z,11.55
2022-12-08T17:39:02.750Z,12.05
2022-12-08T17:41:31.035Z,11.43
2022-12-08T17:43:59.046Z,11.95
2022-12-08T17:46:26.996Z,11.98
2022-12-08T17:48:55.793Z,11.10
2022-12-08T17:51:25.341Z,10.57
2022-12-08T17:53:53.317Z,12.00
2022-12-08T17:56:22.440Z,10.77
2022-12-08T17:58:54.543Z,10.50
2022-12-08T18:01:23.784Z,9.90
2022-12-08T18:03:52.415Z,9.65
2022-12-08T18:06:21.114Z,10.27
2022-12-08T18:08:50.815Z,9.90
2022-12-08T18:11:22.830Z,11.82
2022-12-08T18:13:51.875Z,11.10
2022-12-08T18:16:21.236Z,11.48
2022-12-08T18:18:49.469Z,12.15
2022-12-08T18:21:23.320Z,11.07
2022-12-08T18:23:53.117Z,12.15
2022-12-08T18:26:21.616Z,11.88
2022-12-08T18:28:49.633Z,11.75
2022-12-08T18:31:20.410Z,11.85
2022-12-08T18:33:49.367Z,13.50
2022-12-08T18:36:20.729Z,12.48
2022-12-08T18:38:49.248Z,12.55
2022-12-08T18:41:23.361Z,13.27
2022-12-08T18:43:52.112Z,13.50
2022-12-08T18:46:20.135Z,13.20
2022-12-08T18:48:49.804Z,13.27
2022-12-08T18:51:19.971Z,12.27
2022-12-08T18:53:48.434Z,14.10
2022-12-08T18:56:25.417Z,12.98
2022-12-08T18:58:57.281Z,13.57
2022-12-08T19:01:27.954Z,12.43
2022-12-08T19:04:26.931Z,14.32
2022-12-08T19:06:45.223Z,12.45
2022-12-08T19:09:14.261Z,11.85
2022-12-08T19:11:44.524Z,11.68
2022-12-08T19:14:12.920Z,11.23
2022-12-08T19:16:40.831Z,10.32
2022-12-08T19:19:08.733Z,11.60
2022-12-08T19:21:42.931Z,10.68
2022-12-08T19:24:13.968Z,10.55
2022-12-08T19:26:43.439Z,10.70
2022-12-08T19:29:11.959Z,10.00
2022-12-08T19:31:40.181Z,9.88
2022-12-08T19:34:09.275Z,11.30
2022-12-08T19:36:42.333Z,11.80
2022-12-08T19:39:33.107Z,11.38
2022-12-08T19:42:20.268Z,10.68
2022-12-08T19:44:54.455Z,12.07
2022-12-08T19:47:24.011Z,12.35
2022-12-08T19:49:51.998Z,11.88
2022-12-08T19:52:20.145Z,11.18
2022-12-08T19:54:48.427Z,11.82
2022-12-08T19:57:17.770Z,12.32
2022-12-08T19:59:45.709Z,11.43
2022-12-08T20:02:13.639Z,11.85
2022-12-08T20:04:41.583Z,11.13
2022-12-08T20:07:13.437Z,10.48
2022-12-08T20:09:41.424Z,10.40
2022-12-08T20:12:09.482Z,10.32
2022-12-08T20:14:44.122Z,12.30
2022-12-08T20:17:13.913Z,9.90
2022-12-08T20:19:41.954Z,12.55
2022-12-08T20:22:09.890Z,11.43
2022-12-08T20:24:37.788Z,12.30
2022-12-08T20:27:05.747Z,11.18
2022-12-08T20:29:34.610Z,11.32
2022-12-08T20:32:04.456Z,12.48
2022-12-08T20:34:32.777Z,12.25
2022-12-08T20:37:00.656Z,12.23
2022-12-08T20:39:28.571Z,11.32
2022-12-08T20:41:56.676Z,11.65
2022-12-08T20:44:24.684Z,13.23
2022-12-08T20:46:52.781Z,12.57
2022-12-08T20:49:22.329Z,12.27
2022-12-08T20:51:50.227Z,12.68
2022-12-08T20:54:18.199Z,12.05
2022-12-08T20:56:48.539Z,11.15
2022-12-08T20:59:18.215Z,13.25
2022-12-08T21:01:46.457Z,12.32
2022-12-08T21:04:14.952Z,12.57
2022-12-08T21:06:44.424Z,11.15
2022-12-08T21:09:12.548Z,12.52
2022-12-08T21:11:40.696Z,11.90
2022-12-08T21:14:08.834Z,12.73
2022-12-08T21:16:37.447Z,11.77
2022-12-08T21:19:06.192Z,11.73
2022-12-08T21:21:34.333Z,12.35
2022-12-08T21:24:04.873Z,12.90
2022-12-08T21:26:32.792Z,12.18
2022-12-08T21:29:00.688Z,11.23
2022-12-08T21:31:31.836Z,11.57
2022-12-08T21:34:00.279Z,11.95
2022-12-08T21:36:28.636Z,10.95
2022-12-08T21:38:58.241Z,12.35
2022-12-08T21:41:45.828Z,11.52
2022-12-08T21:44:15.835Z,12.80
2022-12-08T21:46:43.833Z,12.57
2022-12-08T21:49:11.761Z,13.32
2022-12-08T21:51:42.269Z,12.68
2022-12-08T21:54:16.675Z,12.63
2022-12-08T21:56:48.807Z,13.82
2022-12-08T21:59:17.790Z,13.15
2022-12-08T22:01:45.969Z,12.77
2022-12-08T22:04:19.539Z,13.18
2022-12-08T22:06:47.733Z,13.70
2022-12-08T22:09:15.875Z,13.38
2022-12-08T22:11:44.851Z,15.32
2022-12-08T22:14:15.365Z,15.25
2022-12-08T22:16:44.195Z,14.73
2022-12-08T22:19:12.525Z,15.02
2022-12-08T22:21:41.092Z,13.48
2022-12-08T22:24:09.416Z,14.75
2022-12-08T22:26:37.498Z,14.35
2022-12-08T22:29:05.609Z,15.38
2022-12-08T22:31:35.296Z,14.88
2022-12-08T22:34:03.391Z,14.38
2022-12-08T22:36:31.595Z,14.45
2022-12-08T22:38:59.586Z,13.85
2022-12-08T22:41:27.534Z,13.45
2022-12-08T22:43:55.693Z,14.70
2022-12-08T22:46:25.337Z,13.05
2022-12-08T22:48:55.944Z,14.20
2022-12-08T22:51:24.023Z,14.30
2022-12-08T22:53:52.398Z,15.85
2022-12-08T22:56:20.846Z,14.40
2022-12-08T22:58:48.889Z,15.52
2022-12-08T23:01:29.073Z,14.48
2022-12-08T23:03:59.320Z,14.38
2022-12-08T23:06:28.669Z,13.25
2022-12-08T23:08:57.259Z,14.25
2022-12-08T23:11:27.222Z,14.55
2022-12-08T23:13:56.245Z,13.98
2022-12-08T23:16:24.520Z,14.73
2022-12-08T23:18:52.476Z,14.65
2022-12-08T23:21:22.255Z,15.00
2022-12-08T23:23:50.181Z,14.05
2022-12-08T23:26:21.550Z,15.02
2022-12-08T23:28:49.639Z,14.35
2022-12-08T23:31:18.312Z,14.52
2022-12-08T23:33:47.065Z,15.18
2022-12-08T23:36:16.072Z,15.32
2022-12-08T23:38:45.646Z,14.35
2022-12-08T23:41:15.527Z,16.08
2022-12-08T23:43:46.360Z,14.40
2022-12-08T23:46:14.454Z,14.68
2022-12-08T23:48:42.765Z,15.35
2022-12-08T23:51:10.815Z,14.60
2022-12-08T23:53:39.019Z,16.23
2022-12-08T23:56:10.592Z,14.55
2022-12-08T23:58:39.026Z,15.23
